sensor_id;sensor_type;location;lat;lon;timestamp;P1;durP1;ratioP1;P2;durP2;ratioP2
12990;SDS011;6560;57.692;11.958;2023-05-27T00:02:21;27.30;;;6.70;;
12990;SDS011;6560;57.692;11.958;2023-05-27T00:04:46;25.07;;;6.53;;
12990;SDS011;6560;57.692;11.958;2023-05-27T00:07:12;20.27;;;5.93;;
12990;SDS011;6560;57.692;11.958;2023-05-27T00:09:38;26.20;;;6.27;;
12990;SDS011;6560;57.692;11.958;2023-05-27T00:12:03;27.63;;;7.30;;
12990;SDS011;6560;57.692;11.958;2023-05-27T00:14:29;22.47;;;6.63;;
12990;SDS011;6560;57.692;11.958;2023-05-27T00:16:55;33.33;;;8.23;;
12990;SDS011;6560;57.692;11.958;2023-05-27T00:19:20;19.10;;;5.80;;
12990;SDS011;6560;57.692;11.958;2023-05-27T00:21:46;23.53;;;5.33;;
12990;SDS011;6560;57.692;11.958;2023-05-27T00:24:11;21.47;;;5.70;;
12990;SDS011;6560;57.692;11.958;2023-05-27T00:26:37;28.97;;;6.10;;
12990;SDS011;6560;57.692;11.958;2023-05-27T00:29:04;23.97;;;5.97;;
12990;SDS011;6560;57.692;11.958;2023-05-27T00:31:29;28.50;;;6.30;;
12990;SDS011;6560;57.692;11.958;2023-05-27T00:33:55;31.87;;;6.73;;
12990;SDS011;6560;57.692;11.958;2023-05-27T00:36:20;25.27;;;6.17;;
12990;SDS011;6560;57.692;11.958;2023-05-27T00:38:46;21.80;;;7.57;;
12990;SDS011;6560;57.692;11.958;2023-05-27T00:41:12;34.30;;;7.03;;
12990;SDS011;6560;57.692;11.958;2023-05-27T00:43:38;25.20;;;6.93;;
12990;SDS011;6560;57.692;11.958;2023-05-27T00:46:04;23.93;;;7.13;;
12990;SDS011;6560;57.692;11.958;2023-05-27T00:48:30;20.93;;;5.57;;
12990;SDS011;6560;57.692;11.958;2023-05-27T00:50:55;21.57;;;6.17;;
12990;SDS011;6560;57.692;11.958;2023-05-27T00:53:21;30.63;;;6.33;;
12990;SDS011;6560;57.692;11.958;2023-05-27T00:55:47;23.67;;;6.23;;
12990;SDS011;6560;57.692;11.958;2023-05-27T00:58:13;21.87;;;6.60;;
12990;SDS011;6560;57.692;11.958;2023-05-27T01:00:39;29.97;;;6.63;;
12990;SDS011;6560;57.692;11.958;2023-05-27T01:03:05;22.17;;;7.20;;
12990;SDS011;6560;57.692;11.958;2023-05-27T01:05:31;20.60;;;5.73;;
12990;SDS011;6560;57.692;11.958;2023-05-27T01:10:35;40.50;;;9.07;;
12990;SDS011;6560;57.692;11.958;2023-05-27T01:13:09;30.87;;;7.37;;
12990;SDS011;6560;57.692;11.958;2023-05-27T01:15:41;19.90;;;6.27;;
12990;SDS011;6560;57.692;11.958;2023-05-27T01:18:07;25.87;;;7.70;;
12990;SDS011;6560;57.692;11.958;2023-05-27T01:20:34;29.53;;;6.20;;
12990;SDS011;6560;57.692;11.958;2023-05-27T01:23:05;21.03;;;6.40;;
12990;SDS011;6560;57.692;11.958;2023-05-27T01:25:33;23.77;;;6.13;;
12990;SDS011;6560;57.692;11.958;2023-05-27T01:27:58;23.33;;;6.97;;
12990;SDS011;6560;57.692;11.958;2023-05-27T01:30:24;20.60;;;6.27;;
12990;SDS011;6560;57.692;11.958;2023-05-27T01:33:09;24.77;;;6.27;;
12990;SDS011;6560;57.692;11.958;2023-05-27T01:35:45;29.43;;;6.77;;
12990;SDS011;6560;57.692;11.958;2023-05-27T01:38:16;23.97;;;6.97;;
12990;SDS011;6560;57.692;11.958;2023-05-27T01:40:44;35.63;;;7.77;;
12990;SDS011;6560;57.692;11.958;2023-05-27T01:43:11;20.57;;;5.17;;
12990;SDS011;6560;57.692;11.958;2023-05-27T01:45:38;27.53;;;7.20;;
12990;SDS011;6560;57.692;11.958;2023-05-27T01:48:04;21.47;;;6.60;;
12990;SDS011;6560;57.692;11.958;2023-05-27T01:50:30;28.67;;;6.37;;
12990;SDS011;6560;57.692;11.958;2023-05-27T01:52:56;23.17;;;6.63;;
12990;SDS011;6560;57.692;11.958;2023-05-27T01:55:22;18.30;;;6.23;;
12990;SDS011;6560;57.692;11.958;2023-05-27T01:57:48;20.63;;;6.80;;
12990;SDS011;6560;57.692;11.958;2023-05-27T02:00:14;18.13;;;5.33;;
12990;SDS011;6560;57.692;11.958;2023-05-27T02:02:40;26.73;;;6.93;;
12990;SDS011;6560;57.692;11.958;2023-05-27T02:05:06;20.70;;;6.23;;
12990;SDS011;6560;57.692;11.958;2023-05-27T02:07:32;32.10;;;6.43;;
12990;SDS011;6560;57.692;11.958;2023-05-27T02:09:58;17.07;;;5.90;;
12990;SDS011;6560;57.692;11.958;2023-05-27T02:12:23;24.03;;;6.37;;
12990;SDS011;6560;57.692;11.958;2023-05-27T02:14:49;21.10;;;6.77;;
12990;SDS011;6560;57.692;11.958;2023-05-27T02:17:16;29.50;;;6.97;;
12990;SDS011;6560;57.692;11.958;2023-05-27T02:19:42;21.33;;;6.77;;
12990;SDS011;6560;57.692;11.958;2023-05-27T02:22:07;20.53;;;6.00;;
12990;SDS011;6560;57.692;11.958;2023-05-27T02:24:33;23.13;;;6.17;;
12990;SDS011;6560;57.692;11.958;2023-05-27T02:26:59;16.87;;;5.50;;
12990;SDS011;6560;57.692;11.958;2023-05-27T02:29:25;27.93;;;7.07;;
12990;SDS011;6560;57.692;11.958;2023-05-27T02:31:50;22.73;;;8.03;;
12990;SDS011;6560;57.692;11.958;2023-05-27T02:34:16;25.33;;;6.27;;
12990;SDS011;6560;57.692;11.958;2023-05-27T02:36:41;18.77;;;5.43;;
12990;SDS011;6560;57.692;11.958;2023-05-27T02:39:08;29.63;;;7.03;;
12990;SDS011;6560;57.692;11.958;2023-05-27T02:41:33;28.83;;;7.70;;
12990;SDS011;6560;57.692;11.958;2023-05-27T02:43:59;24.27;;;5.47;;
12990;SDS011;6560;57.692;11.958;2023-05-27T02:46:25;27.90;;;6.37;;
12990;SDS011;6560;57.692;11.958;2023-05-27T02:48:50;21.00;;;6.27;;
12990;SDS011;6560;57.692;11.958;2023-05-27T02:51:16;24.93;;;6.27;;
12990;SDS011;6560;57.692;11.958;2023-05-27T02:53:41;21.30;;;5.70;;
12990;SDS011;6560;57.692;11.958;2023-05-27T02:56:13;24.60;;;6.33;;
12990;SDS011;6560;57.692;11.958;2023-05-27T02:58:39;21.90;;;6.43;;
12990;SDS011;6560;57.692;11.958;2023-05-27T03:01:05;22.13;;;7.20;;
12990;SDS011;6560;57.692;11.958;2023-05-27T03:03:30;33.67;;;6.60;;
12990;SDS011;6560;57.692;11.958;2023-05-27T03:05:56;20.83;;;5.20;;
12990;SDS011;6560;57.692;11.958;2023-05-27T03:08:28;15.73;;;4.70;;
12990;SDS011;6560;57.692;11.958;2023-05-27T03:10:54;19.53;;;6.57;;
12990;SDS011;6560;57.692;11.958;2023-05-27T03:13:19;26.77;;;6.63;;
12990;SDS011;6560;57.692;11.958;2023-05-27T03:15:45;17.23;;;5.20;;
12990;SDS011;6560;57.692;11.958;2023-05-27T03:18:11;19.90;;;6.23;;
12990;SDS011;6560;57.692;11.958;2023-05-27T03:20:36;13.43;;;5.57;;
12990;SDS011;6560;57.692;11.958;2023-05-27T03:23:02;19.33;;;5.97;;
12990;SDS011;6560;57.692;11.958;2023-05-27T03:25:27;18.00;;;5.93;;
12990;SDS011;6560;57.692;11.958;2023-05-27T03:27:54;12.57;;;4.93;;
12990;SDS011;6560;57.692;11.958;2023-05-27T03:30:19;12.60;;;5.07;;
12990;SDS011;6560;57.692;11.958;2023-05-27T03:32:45;16.80;;;5.00;;
12990;SDS011;6560;57.692;11.958;2023-05-27T03:35:11;15.13;;;5.07;;
12990;SDS011;6560;57.692;11.958;2023-05-27T03:37:36;14.43;;;5.57;;
12990;SDS011;6560;57.692;11.958;2023-05-27T03:40:02;16.13;;;5.17;;
12990;SDS011;6560;57.692;11.958;2023-05-27T03:42:28;17.20;;;5.47;;
12990;SDS011;6560;57.692;11.958;2023-05-27T03:44:53;16.00;;;4.53;;
12990;SDS011;6560;57.692;11.958;2023-05-27T03:47:19;16.17;;;5.57;;
12990;SDS011;6560;57.692;11.958;2023-05-27T03:49:46;10.37;;;3.93;;
12990;SDS011;6560;57.692;11.958;2023-05-27T03:52:12;19.17;;;5.43;;
12990;SDS011;6560;57.692;11.958;2023-05-27T03:54:38;15.67;;;4.80;;
12990;SDS011;6560;57.692;11.958;2023-05-27T03:57:03;9.50;;;4.60;;
12990;SDS011;6560;57.692;11.958;2023-05-27T03:59:29;10.00;;;4.38;;
12990;SDS011;6560;57.692;11.958;2023-05-27T04:01:54;13.60;;;4.82;;
12990;SDS011;6560;57.692;11.958;2023-05-27T04:04:20;12.25;;;3.60;;
12990;SDS011;6560;57.692;11.958;2023-05-27T04:06:46;10.07;;;3.70;;
12990;SDS011;6560;57.692;11.958;2023-05-27T04:09:11;8.85;;;3.85;;
12990;SDS011;6560;57.692;11.958;2023-05-27T04:11:37;10.55;;;4.22;;
12990;SDS011;6560;57.692;11.958;2023-05-27T04:14:02;10.23;;;4.50;;
12990;SDS011;6560;57.692;11.958;2023-05-27T04:16:32;8.32;;;4.05;;
12990;SDS011;6560;57.692;11.958;2023-05-27T04:18:59;9.70;;;3.85;;
12990;SDS011;6560;57.692;11.958;2023-05-27T04:21:25;13.00;;;4.20;;
12990;SDS011;6560;57.692;11.958;2023-05-27T04:23:50;9.98;;;3.80;;
12990;SDS011;6560;57.692;11.958;2023-05-27T04:26:16;9.38;;;3.65;;
12990;SDS011;6560;57.692;11.958;2023-05-27T04:28:41;8.35;;;3.58;;
12990;SDS011;6560;57.692;11.958;2023-05-27T04:31:10;9.27;;;4.55;;
12990;SDS011;6560;57.692;11.958;2023-05-27T04:33:40;8.05;;;3.70;;
12990;SDS011;6560;57.692;11.958;2023-05-27T04:36:06;11.23;;;3.97;;
12990;SDS011;6560;57.692;11.958;2023-05-27T04:38:32;9.35;;;4.55;;
12990;SDS011;6560;57.692;11.958;2023-05-27T04:40:57;7.90;;;3.53;;
12990;SDS011;6560;57.692;11.958;2023-05-27T04:43:23;8.93;;;3.72;;
12990;SDS011;6560;57.692;11.958;2023-05-27T04:45:51;7.45;;;3.88;;
12990;SDS011;6560;57.692;11.958;2023-05-27T04:48:18;14.20;;;3.90;;
12990;SDS011;6560;57.692;11.958;2023-05-27T04:50:45;6.75;;;3.05;;
12990;SDS011;6560;57.692;11.958;2023-05-27T04:53:10;7.90;;;3.22;;
12990;SDS011;6560;57.692;11.958;2023-05-27T04:55:36;10.40;;;4.05;;
12990;SDS011;6560;57.692;11.958;2023-05-27T04:58:04;7.15;;;2.80;;
12990;SDS011;6560;57.692;11.958;2023-05-27T05:00:30;5.93;;;3.63;;
12990;SDS011;6560;57.692;11.958;2023-05-27T05:03:20;8.75;;;3.30;;
12990;SDS011;6560;57.692;11.958;2023-05-27T05:05:50;10.48;;;3.30;;
12990;SDS011;6560;57.692;11.958;2023-05-27T05:08:17;7.13;;;2.70;;
12990;SDS011;6560;57.692;11.958;2023-05-27T05:10:43;8.05;;;3.25;;
12990;SDS011;6560;57.692;11.958;2023-05-27T05:13:11;9.73;;;2.97;;
12990;SDS011;6560;57.692;11.958;2023-05-27T05:15:37;7.50;;;2.88;;
12990;SDS011;6560;57.692;11.958;2023-05-27T05:18:02;8.45;;;3.08;;
12990;SDS011;6560;57.692;11.958;2023-05-27T05:20:28;7.65;;;3.42;;
12990;SDS011;6560;57.692;11.958;2023-05-27T05:22:53;8.50;;;2.85;;
12990;SDS011;6560;57.692;11.958;2023-05-27T05:25:19;7.28;;;2.60;;
12990;SDS011;6560;57.692;11.958;2023-05-27T05:27:44;6.93;;;2.70;;
12990;SDS011;6560;57.692;11.958;2023-05-27T05:30:10;4.88;;;2.35;;
12990;SDS011;6560;57.692;11.958;2023-05-27T05:32:36;6.20;;;3.15;;
12990;SDS011;6560;57.692;11.958;2023-05-27T05:35:02;6.00;;;2.30;;
12990;SDS011;6560;57.692;11.958;2023-05-27T05:37:28;5.38;;;2.63;;
12990;SDS011;6560;57.692;11.958;2023-05-27T05:39:53;5.85;;;3.05;;
12990;SDS011;6560;57.692;11.958;2023-05-27T05:42:20;8.70;;;2.78;;
12990;SDS011;6560;57.692;11.958;2023-05-27T05:44:46;4.40;;;2.50;;
12990;SDS011;6560;57.692;11.958;2023-05-27T05:47:12;6.45;;;3.58;;
12990;SDS011;6560;57.692;11.958;2023-05-27T05:49:37;8.57;;;3.20;;
12990;SDS011;6560;57.692;11.958;2023-05-27T05:52:03;5.55;;;2.03;;
12990;SDS011;6560;57.692;11.958;2023-05-27T05:54:29;6.15;;;2.28;;
12990;SDS011;6560;57.692;11.958;2023-05-27T05:56:54;5.78;;;2.50;;
12990;SDS011;6560;57.692;11.958;2023-05-27T05:59:20;7.05;;;2.60;;
12990;SDS011;6560;57.692;11.958;2023-05-27T06:01:45;4.72;;;2.35;;
12990;SDS011;6560;57.692;11.958;2023-05-27T06:04:11;6.55;;;2.47;;
12990;SDS011;6560;57.692;11.958;2023-05-27T06:06:37;3.53;;;1.98;;
12990;SDS011;6560;57.692;11.958;2023-05-27T06:09:05;4.80;;;1.98;;
12990;SDS011;6560;57.692;11.958;2023-05-27T06:11:30;6.93;;;3.13;;
12990;SDS011;6560;57.692;11.958;2023-05-27T06:13:56;3.70;;;2.08;;
12990;SDS011;6560;57.692;11.958;2023-05-27T06:16:22;4.95;;;2.13;;
12990;SDS011;6560;57.692;11.958;2023-05-27T06:18:47;5.57;;;2.13;;
12990;SDS011;6560;57.692;11.958;2023-05-27T06:21:13;5.47;;;2.30;;
12990;SDS011;6560;57.692;11.958;2023-05-27T06:23:38;3.97;;;2.50;;
12990;SDS011;6560;57.692;11.958;2023-05-27T06:26:04;8.45;;;2.70;;
12990;SDS011;6560;57.692;11.958;2023-05-27T06:28:30;3.95;;;2.47;;
12990;SDS011;6560;57.692;11.958;2023-05-27T06:30:55;8.98;;;2.72;;
12990;SDS011;6560;57.692;11.958;2023-05-27T06:33:20;5.65;;;2.75;;
12990;SDS011;6560;57.692;11.958;2023-05-27T06:35:46;5.40;;;2.78;;
12990;SDS011;6560;57.692;11.958;2023-05-27T06:38:12;5.50;;;2.70;;
12990;SDS011;6560;57.692;11.958;2023-05-27T06:40:37;9.35;;;3.17;;
12990;SDS011;6560;57.692;11.958;2023-05-27T06:43:03;7.55;;;3.22;;
12990;SDS011;6560;57.692;11.958;2023-05-27T06:45:28;6.45;;;2.67;;
12990;SDS011;6560;57.692;11.958;2023-05-27T06:47:56;5.90;;;2.58;;
12990;SDS011;6560;57.692;11.958;2023-05-27T06:50:22;6.40;;;2.47;;
12990;SDS011;6560;57.692;11.958;2023-05-27T06:52:47;7.55;;;2.75;;
12990;SDS011;6560;57.692;11.958;2023-05-27T06:55:13;5.07;;;2.38;;
12990;SDS011;6560;57.692;11.958;2023-05-27T06:57:38;6.82;;;2.40;;
12990;SDS011;6560;57.692;11.958;2023-05-27T07:00:04;4.35;;;2.47;;
12990;SDS011;6560;57.692;11.958;2023-05-27T07:02:31;4.53;;;2.17;;
12990;SDS011;6560;57.692;11.958;2023-05-27T07:04:56;7.47;;;2.38;;
12990;SDS011;6560;57.692;11.958;2023-05-27T07:07:22;6.53;;;3.00;;
12990;SDS011;6560;57.692;11.958;2023-05-27T07:09:47;7.22;;;2.67;;
12990;SDS011;6560;57.692;11.958;2023-05-27T07:12:13;5.18;;;2.40;;
12990;SDS011;6560;57.692;11.958;2023-05-27T07:14:38;4.70;;;2.60;;
12990;SDS011;6560;57.692;11.958;2023-05-27T07:17:04;6.95;;;2.85;;
12990;SDS011;6560;57.692;11.958;2023-05-27T07:19:30;7.70;;;3.25;;
12990;SDS011;6560;57.692;11.958;2023-05-27T07:21:55;8.70;;;2.85;;
12990;SDS011;6560;57.692;11.958;2023-05-27T07:24:21;6.70;;;2.88;;
12990;SDS011;6560;57.692;11.958;2023-05-27T07:26:46;5.88;;;2.92;;
12990;SDS011;6560;57.692;11.958;2023-05-27T07:29:12;4.53;;;2.03;;
12990;SDS011;6560;57.692;11.958;2023-05-27T07:31:37;4.35;;;2.35;;
12990;SDS011;6560;57.692;11.958;2023-05-27T07:34:03;5.70;;;2.33;;
12990;SDS011;6560;57.692;11.958;2023-05-27T07:36:28;4.85;;;2.10;;
12990;SDS011;6560;57.692;11.958;2023-05-27T07:38:54;4.85;;;2.05;;
12990;SDS011;6560;57.692;11.958;2023-05-27T07:41:19;4.68;;;2.45;;
12990;SDS011;6560;57.692;11.958;2023-05-27T07:43:46;3.35;;;2.03;;
12990;SDS011;6560;57.692;11.958;2023-05-27T07:46:12;3.72;;;1.60;;
12990;SDS011;6560;57.692;11.958;2023-05-27T07:48:37;4.05;;;2.33;;
12990;SDS011;6560;57.692;11.958;2023-05-27T07:51:03;4.13;;;2.25;;
12990;SDS011;6560;57.692;11.958;2023-05-27T07:53:28;4.40;;;2.22;;
12990;SDS011;6560;57.692;11.958;2023-05-27T07:55:55;7.30;;;2.45;;
12990;SDS011;6560;57.692;11.958;2023-05-27T07:58:20;5.88;;;2.00;;
12990;SDS011;6560;57.692;11.958;2023-05-27T08:00:46;5.15;;;2.90;;
12990;SDS011;6560;57.692;11.958;2023-05-27T08:03:11;3.80;;;2.28;;
12990;SDS011;6560;57.692;11.958;2023-05-27T08:05:37;5.25;;;2.33;;
12990;SDS011;6560;57.692;11.958;2023-05-27T08:08:02;6.60;;;2.83;;
12990;SDS011;6560;57.692;11.958;2023-05-27T08:10:28;6.50;;;2.72;;
12990;SDS011;6560;57.692;11.958;2023-05-27T08:12:53;7.47;;;2.88;;
12990;SDS011;6560;57.692;11.958;2023-05-27T08:15:19;8.80;;;2.83;;
12990;SDS011;6560;57.692;11.958;2023-05-27T08:17:45;7.38;;;2.47;;
12990;SDS011;6560;57.692;11.958;2023-05-27T08:20:10;11.75;;;3.10;;
12990;SDS011;6560;57.692;11.958;2023-05-27T08:22:37;5.28;;;2.83;;
12990;SDS011;6560;57.692;11.958;2023-05-27T08:25:03;5.80;;;3.00;;
12990;SDS011;6560;57.692;11.958;2023-05-27T08:27:45;7.13;;;3.60;;
12990;SDS011;6560;57.692;11.958;2023-05-27T08:30:16;10.88;;;3.60;;
12990;SDS011;6560;57.692;11.958;2023-05-27T08:32:42;8.95;;;3.45;;
12990;SDS011;6560;57.692;11.958;2023-05-27T08:35:08;6.20;;;2.42;;
12990;SDS011;6560;57.692;11.958;2023-05-27T08:37:35;6.75;;;4.00;;
12990;SDS011;6560;57.692;11.958;2023-05-27T08:40:00;4.68;;;2.72;;
12990;SDS011;6560;57.692;11.958;2023-05-27T08:42:26;5.07;;;2.88;;
12990;SDS011;6560;57.692;11.958;2023-05-27T08:44:52;9.07;;;2.97;;
12990;SDS011;6560;57.692;11.958;2023-05-27T08:47:17;10.55;;;3.40;;
12990;SDS011;6560;57.692;11.958;2023-05-27T08:49:44;8.07;;;3.80;;
12990;SDS011;6560;57.692;11.958;2023-05-27T08:52:09;11.80;;;3.58;;
12990;SDS011;6560;57.692;11.958;2023-05-27T08:54:36;5.55;;;2.92;;
12990;SDS011;6560;57.692;11.958;2023-05-27T08:57:04;10.15;;;3.90;;
12990;SDS011;6560;57.692;11.958;2023-05-27T08:59:32;6.43;;;2.85;;
12990;SDS011;6560;57.692;11.958;2023-05-27T09:01:59;7.97;;;3.35;;
12990;SDS011;6560;57.692;11.958;2023-05-27T09:04:25;8.23;;;3.10;;
12990;SDS011;6560;57.692;11.958;2023-05-27T09:06:54;5.45;;;3.08;;
12990;SDS011;6560;57.692;11.958;2023-05-27T09:09:19;10.27;;;3.72;;
12990;SDS011;6560;57.692;11.958;2023-05-27T09:11:46;9.07;;;3.95;;
12990;SDS011;6560;57.692;11.958;2023-05-27T09:14:19;9.77;;;4.30;;
12990;SDS011;6560;57.692;11.958;2023-05-27T09:16:48;6.45;;;3.30;;
12990;SDS011;6560;57.692;11.958;2023-05-27T09:19:17;10.02;;;4.25;;
12990;SDS011;6560;57.692;11.958;2023-05-27T09:21:43;7.60;;;3.60;;
12990;SDS011;6560;57.692;11.958;2023-05-27T09:24:09;8.50;;;3.30;;
12990;SDS011;6560;57.692;11.958;2023-05-27T09:26:35;6.72;;;3.13;;
12990;SDS011;6560;57.692;11.958;2023-05-27T09:29:05;8.40;;;3.58;;
12990;SDS011;6560;57.692;11.958;2023-05-27T09:31:40;9.82;;;3.42;;
12990;SDS011;6560;57.692;11.958;2023-05-27T09:34:13;5.85;;;3.55;;
12990;SDS011;6560;57.692;11.958;2023-05-27T09:39:18;10.85;;;4.00;;
12990;SDS011;6560;57.692;11.958;2023-05-27T09:41:50;9.43;;;4.30;;
12990;SDS011;6560;57.692;11.958;2023-05-27T09:44:18;8.55;;;3.83;;
12990;SDS011;6560;57.692;11.958;2023-05-27T09:46:44;9.70;;;3.97;;
12990;SDS011;6560;57.692;11.958;2023-05-27T09:49:11;8.80;;;3.90;;
12990;SDS011;6560;57.692;11.958;2023-05-27T09:51:40;8.00;;;3.60;;
12990;SDS011;6560;57.692;11.958;2023-05-27T09:54:07;7.88;;;4.07;;
12990;SDS011;6560;57.692;11.958;2023-05-27T09:56:34;8.07;;;3.60;;
12990;SDS011;6560;57.692;11.958;2023-05-27T09:59:00;12.02;;;4.45;;
12990;SDS011;6560;57.692;11.958;2023-05-27T10:01:26;9.80;;;3.47;;
12990;SDS011;6560;57.692;11.958;2023-05-27T10:04:00;10.32;;;4.13;;
12990;SDS011;6560;57.692;11.958;2023-05-27T10:06:27;8.27;;;3.88;;
12990;SDS011;6560;57.692;11.958;2023-05-27T10:08:57;10.57;;;4.78;;
12990;SDS011;6560;57.692;11.958;2023-05-27T10:11:23;12.07;;;3.40;;
12990;SDS011;6560;57.692;11.958;2023-05-27T10:13:51;7.97;;;3.40;;
12990;SDS011;6560;57.692;11.958;2023-05-27T10:16:21;7.82;;;3.50;;
12990;SDS011;6560;57.692;11.958;2023-05-27T10:18:48;8.43;;;3.67;;
12990;SDS011;6560;57.692;11.958;2023-05-27T10:21:18;9.13;;;3.97;;
12990;SDS011;6560;57.692;11.958;2023-05-27T10:24:09;14.25;;;4.35;;
12990;SDS011;6560;57.692;11.958;2023-05-27T10:26:45;12.00;;;4.75;;
12990;SDS011;6560;57.692;11.958;2023-05-27T10:31:51;15.07;;;5.07;;
12990;SDS011;6560;57.692;11.958;2023-05-27T10:34:17;10.85;;;3.95;;
12990;SDS011;6560;57.692;11.958;2023-05-27T10:36:46;8.23;;;4.25;;
12990;SDS011;6560;57.692;11.958;2023-05-27T10:39:13;12.57;;;4.35;;
12990;SDS011;6560;57.692;11.958;2023-05-27T10:41:48;6.32;;;3.58;;
12990;SDS011;6560;57.692;11.958;2023-05-27T10:44:25;9.63;;;3.88;;
12990;SDS011;6560;57.692;11.958;2023-05-27T10:47:01;10.02;;;4.03;;
12990;SDS011;6560;57.692;11.958;2023-05-27T10:49:50;10.05;;;4.28;;
12990;SDS011;6560;57.692;11.958;2023-05-27T10:52:16;15.48;;;6.75;;
12990;SDS011;6560;57.692;11.958;2023-05-27T10:54:43;11.48;;;4.70;;
12990;SDS011;6560;57.692;11.958;2023-05-27T10:57:13;12.40;;;4.63;;
12990;SDS011;6560;57.692;11.958;2023-05-27T10:59:49;20.05;;;6.63;;
12990;SDS011;6560;57.692;11.958;2023-05-27T11:02:28;12.30;;;5.85;;
12990;SDS011;6560;57.692;11.958;2023-05-27T11:04:57;12.68;;;5.13;;
12990;SDS011;6560;57.692;11.958;2023-05-27T11:07:23;13.23;;;4.97;;
12990;SDS011;6560;57.692;11.958;2023-05-27T11:09:50;11.50;;;4.68;;
12990;SDS011;6560;57.692;11.958;2023-05-27T11:12:21;11.27;;;4.45;;
12990;SDS011;6560;57.692;11.958;2023-05-27T11:14:48;9.23;;;4.35;;
12990;SDS011;6560;57.692;11.958;2023-05-27T11:17:15;9.55;;;4.25;;
12990;SDS011;6560;57.692;11.958;2023-05-27T11:19:41;10.75;;;4.07;;
12990;SDS011;6560;57.692;11.958;2023-05-27T11:22:08;12.13;;;4.07;;
12990;SDS011;6560;57.692;11.958;2023-05-27T11:24:35;8.35;;;4.38;;
12990;SDS011;6560;57.692;11.958;2023-05-27T11:29:36;13.32;;;4.75;;
12990;SDS011;6560;57.692;11.958;2023-05-27T11:32:03;10.40;;;5.03;;
12990;SDS011;6560;57.692;11.958;2023-05-27T11:34:36;9.60;;;4.00;;
12990;SDS011;6560;57.692;11.958;2023-05-27T11:37:02;12.85;;;4.47;;
12990;SDS011;6560;57.692;11.958;2023-05-27T11:39:32;15.95;;;4.22;;
12990;SDS011;6560;57.692;11.958;2023-05-27T11:41:57;12.27;;;4.28;;
12990;SDS011;6560;57.692;11.958;2023-05-27T11:44:24;16.65;;;5.82;;
12990;SDS011;6560;57.692;11.958;2023-05-27T11:46:50;13.57;;;5.55;;
12990;SDS011;6560;57.692;11.958;2023-05-27T11:49:17;11.73;;;4.10;;
12990;SDS011;6560;57.692;11.958;2023-05-27T11:51:45;11.18;;;4.72;;
12990;SDS011;6560;57.692;11.958;2023-05-27T11:54:18;12.45;;;4.68;;
12990;SDS011;6560;57.692;11.958;2023-05-27T11:56:45;10.63;;;4.57;;
12990;SDS011;6560;57.692;11.958;2023-05-27T11:59:17;11.25;;;4.28;;
12990;SDS011;6560;57.692;11.958;2023-05-27T12:01:51;10.48;;;4.25;;
12990;SDS011;6560;57.692;11.958;2023-05-27T12:04:20;13.25;;;5.32;;
12990;SDS011;6560;57.692;11.958;2023-05-27T12:06:46;13.82;;;4.93;;
12990;SDS011;6560;57.692;11.958;2023-05-27T12:09:15;8.02;;;4.07;;
12990;SDS011;6560;57.692;11.958;2023-05-27T12:11:41;13.57;;;4.72;;
12990;SDS011;6560;57.692;11.958;2023-05-27T12:14:07;11.63;;;4.95;;
12990;SDS011;6560;57.692;11.958;2023-05-27T12:16:33;13.85;;;5.13;;
12990;SDS011;6560;57.692;11.958;2023-05-27T12:18:58;17.48;;;6.47;;
12990;SDS011;6560;57.692;11.958;2023-05-27T12:21:24;17.92;;;6.18;;
12990;SDS011;6560;57.692;11.958;2023-05-27T12:23:50;13.73;;;4.72;;
12990;SDS011;6560;57.692;11.958;2023-05-27T12:26:16;17.45;;;5.85;;
12990;SDS011;6560;57.692;11.958;2023-05-27T12:28:42;14.77;;;5.07;;
12990;SDS011;6560;57.692;11.958;2023-05-27T12:31:08;8.20;;;3.55;;
12990;SDS011;6560;57.692;11.958;2023-05-27T12:33:34;13.50;;;4.75;;
12990;SDS011;6560;57.692;11.958;2023-05-27T12:36:00;11.55;;;5.18;;
12990;SDS011;6560;57.692;11.958;2023-05-27T12:38:26;11.80;;;4.57;;
12990;SDS011;6560;57.692;11.958;2023-05-27T12:40:51;13.88;;;4.82;;
12990;SDS011;6560;57.692;11.958;2023-05-27T12:43:18;11.50;;;5.10;;
12990;SDS011;6560;57.692;11.958;2023-05-27T12:45:44;14.23;;;5.22;;
12990;SDS011;6560;57.692;11.958;2023-05-27T12:48:12;11.40;;;4.70;;
12990;SDS011;6560;57.692;11.958;2023-05-27T12:50:38;12.50;;;5.50;;
12990;SDS011;6560;57.692;11.958;2023-05-27T12:53:04;10.85;;;5.20;;
12990;SDS011;6560;57.692;11.958;2023-05-27T12:55:30;13.10;;;5.60;;
12990;SDS011;6560;57.692;11.958;2023-05-27T12:57:56;12.77;;;4.68;;
12990;SDS011;6560;57.692;11.958;2023-05-27T13:00:22;14.27;;;4.88;;
12990;SDS011;6560;57.692;11.958;2023-05-27T13:02:48;12.30;;;4.22;;
12990;SDS011;6560;57.692;11.958;2023-05-27T13:05:14;15.70;;;5.13;;
12990;SDS011;6560;57.692;11.958;2023-05-27T13:07:40;15.88;;;5.40;;
12990;SDS011;6560;57.692;11.958;2023-05-27T13:10:24;12.18;;;5.55;;
12990;SDS011;6560;57.692;11.958;2023-05-27T13:12:50;12.90;;;4.53;;
12990;SDS011;6560;57.692;11.958;2023-05-27T13:15:16;13.75;;;6.30;;
12990;SDS011;6560;57.692;11.958;2023-05-27T13:17:45;11.18;;;4.75;;
12990;SDS011;6560;57.692;11.958;2023-05-27T13:20:12;12.75;;;4.53;;
12990;SDS011;6560;57.692;11.958;2023-05-27T13:22:38;15.50;;;4.75;;
12990;SDS011;6560;57.692;11.958;2023-05-27T13:25:04;9.38;;;4.07;;
12990;SDS011;6560;57.692;11.958;2023-05-27T13:27:29;9.90;;;5.13;;
12990;SDS011;6560;57.692;11.958;2023-05-27T13:29:55;15.98;;;4.47;;
12990;SDS011;6560;57.692;11.958;2023-05-27T13:32:21;18.55;;;5.07;;
12990;SDS011;6560;57.692;11.958;2023-05-27T13:34:47;13.55;;;4.88;;
12990;SDS011;6560;57.692;11.958;2023-05-27T13:37:12;14.93;;;5.53;;
12990;SDS011;6560;57.692;11.958;2023-05-27T13:39:38;13.57;;;5.13;;
12990;SDS011;6560;57.692;11.958;2023-05-27T13:42:08;14.98;;;4.70;;
12990;SDS011;6560;57.692;11.958;2023-05-27T13:44:34;16.42;;;4.35;;
12990;SDS011;6560;57.692;11.958;2023-05-27T13:47:00;11.13;;;4.05;;
12990;SDS011;6560;57.692;11.958;2023-05-27T13:49:25;11.18;;;5.05;;
12990;SDS011;6560;57.692;11.958;2023-05-27T13:51:51;16.38;;;5.07;;
12990;SDS011;6560;57.692;11.958;2023-05-27T13:54:16;9.60;;;3.88;;
12990;SDS011;6560;57.692;11.958;2023-05-27T13:56:42;13.77;;;4.20;;
12990;SDS011;6560;57.692;11.958;2023-05-27T13:59:08;12.93;;;4.65;;
12990;SDS011;6560;57.692;11.958;2023-05-27T14:01:34;8.65;;;3.72;;
12990;SDS011;6560;57.692;11.958;2023-05-27T14:04:00;8.77;;;4.30;;
12990;SDS011;6560;57.692;11.958;2023-05-27T14:06:26;15.82;;;4.07;;
12990;SDS011;6560;57.692;11.958;2023-05-27T14:08:51;12.95;;;4.75;;
12990;SDS011;6560;57.692;11.958;2023-05-27T14:11:17;11.25;;;4.30;;
12990;SDS011;6560;57.692;11.958;2023-05-27T14:13:43;8.43;;;3.92;;
12990;SDS011;6560;57.692;11.958;2023-05-27T14:16:08;8.80;;;4.05;;
12990;SDS011;6560;57.692;11.958;2023-05-27T14:18:35;13.32;;;3.97;;
12990;SDS011;6560;57.692;11.958;2023-05-27T14:21:00;15.07;;;4.57;;
12990;SDS011;6560;57.692;11.958;2023-05-27T14:23:26;15.25;;;4.65;;
12990;SDS011;6560;57.692;11.958;2023-05-27T14:25:52;13.13;;;5.22;;
12990;SDS011;6560;57.692;11.958;2023-05-27T14:28:17;14.50;;;4.40;;
12990;SDS011;6560;57.692;11.958;2023-05-27T14:30:43;13.73;;;4.68;;
12990;SDS011;6560;57.692;11.958;2023-05-27T14:33:08;10.85;;;5.00;;
12990;SDS011;6560;57.692;11.958;2023-05-27T14:35:38;13.45;;;4.78;;
12990;SDS011;6560;57.692;11.958;2023-05-27T14:38:05;12.55;;;4.57;;
12990;SDS011;6560;57.692;11.958;2023-05-27T14:40:31;14.00;;;4.82;;
12990;SDS011;6560;57.692;11.958;2023-05-27T14:42:57;18.77;;;4.75;;
12990;SDS011;6560;57.692;11.958;2023-05-27T14:45:23;15.25;;;4.75;;
12990;SDS011;6560;57.692;11.958;2023-05-27T14:47:49;11.38;;;4.72;;
12990;SDS011;6560;57.692;11.958;2023-05-27T14:50:20;14.75;;;4.47;;